createdAt,value
2024-04-12T02:14:38.712Z,0.00
2024-04-12T02:15:38.448Z,0.00
2024-04-12T02:16:38.361Z,0.00
2024-04-12T02:17:38.355Z,0.00
2024-04-12T02:18:38.259Z,0.00
2024-04-12T02:19:38.105Z,0.00
2024-04-12T02:20:38.113Z,0.00
2024-04-12T02:21:37.937Z,0.00
2024-04-12T02:22:37.852Z,0.00
2024-04-12T02:23:37.796Z,0.00
2024-04-12T02:24:37.682Z,0.00
2024-04-12T02:25:37.601Z,0.00
2024-04-12T02:26:37.544Z,0.00
2024-04-12T02:27:37.426Z,0.00
2024-04-12T02:28:37.349Z,0.00
2024-04-12T02:29:37.279Z,0.00
2024-04-12T02:30:37.194Z,0.00
2024-04-12T02:31:37.124Z,0.00
2024-04-12T02:32:37.078Z,0.00
2024-04-12T02:33:37.063Z,0.00
2024-04-12T02:34:36.844Z,0.00
2024-04-12T02:35:36.773Z,0.00
2024-04-12T02:36:36.683Z,0.00
2024-04-12T02:37:36.586Z,0.00
2024-04-12T02:38:36.523Z,0.00
2024-04-12T02:39:36.416Z,0.00
2024-04-12T02:40:36.334Z,0.00
2024-04-12T02:41:36.291Z,0.00
2024-04-12T02:42:36.167Z,0.00
2024-04-12T02:43:36.085Z,0.00
2024-04-12T02:44:36.022Z,0.00
2024-04-12T02:45:35.911Z,0.00
2024-04-12T02:46:35.841Z,0.00
2024-04-12T02:47:35.812Z,0.00
2024-04-12T02:48:35.713Z,0.00
2024-04-12T02:49:35.576Z,0.00
2024-04-12T02:50:35.523Z,0.00
2024-04-12T02:51:35.408Z,0.00
2024-04-12T02:52:35.345Z,0.00
2024-04-12T02:53:35.262Z,0.00
2024-04-12T02:54:35.154Z,0.00
2024-04-12T02:55:35.066Z,0.00
2024-04-12T02:56:35.028Z,0.00
2024-04-12T02:57:34.904Z,0.00
2024-04-12T02:58:34.816Z,0.00
2024-04-12T02:59:34.752Z,0.00
2024-04-12T03:00:34.668Z,0.00
2024-04-12T03:01:34.565Z,0.00
2024-04-12T03:02:34.599Z,0.00
2024-04-12T03:03:34.477Z,0.00
2024-04-12T03:04:34.325Z,0.00
2024-04-12T03:05:34.298Z,0.00
2024-04-12T03:06:34.695Z,0.00
2024-04-12T03:07:34.066Z,0.00
2024-04-12T03:08:34.315Z,0.00
2024-04-12T03:09:33.893Z,0.00
2024-04-12T03:10:33.807Z,0.00
2024-04-12T03:11:33.767Z,0.00
2024-04-12T03:12:33.638Z,0.00
2024-04-12T03:13:33.556Z,0.00
2024-04-12T03:14:33.503Z,0.00
2024-04-12T03:15:33.388Z,0.00
2024-04-12T03:16:33.337Z,0.00
2024-04-12T03:17:33.300Z,0.00
2024-04-12T03:18:33.217Z,0.00
2024-04-12T03:19:33.092Z,0.00
2024-04-12T03:20:32.984Z,0.00
2024-04-12T03:21:32.879Z,0.00
2024-04-12T03:22:32.793Z,0.00
2024-04-12T03:23:32.748Z,0.00
2024-04-12T03:24:32.629Z,0.00
2024-04-12T03:25:32.544Z,0.00
2024-04-12T03:26:32.580Z,0.00
2024-04-12T03:27:32.373Z,0.00
2024-04-12T03:28:32.294Z,0.00
2024-04-12T03:29:32.219Z,0.00
2024-04-12T03:30:32.128Z,0.00
2024-04-12T03:31:32.032Z,0.00
2024-04-12T03:32:31.990Z,0.00
2024-04-12T03:33:31.935Z,0.00
2024-04-12T03:34:31.793Z,0.00
2024-04-12T03:35:31.706Z,0.00
2024-04-12T03:36:31.629Z,0.00
2024-04-12T03:37:31.543Z,0.00
2024-04-12T03:38:31.447Z,0.00
2024-04-12T03:39:31.376Z,0.00
2024-04-12T03:40:31.283Z,0.00
2024-04-12T03:41:31.197Z,0.00
2024-04-12T03:42:31.118Z,0.00
2024-04-12T03:43:31.038Z,0.00
2024-04-12T03:44:30.948Z,0.00
2024-04-12T03:45:30.856Z,0.00
2024-04-12T03:46:30.776Z,0.00
2024-04-12T03:47:30.741Z,0.00
2024-04-12T03:48:30.727Z,0.00
2024-04-12T03:49:30.527Z,0.00
2024-04-12T03:50:30.441Z,0.00
2024-04-12T03:51:30.362Z,0.00
2024-04-12T03:52:30.271Z,0.00
2024-04-12T03:53:30.190Z,0.00
2024-04-12T03:54:30.100Z,0.00
2024-04-12T03:55:30.024Z,0.00
2024-04-12T03:56:29.933Z,0.00
2024-04-12T03:57:29.846Z,0.00
2024-04-12T03:58:29.764Z,0.00
2024-04-12T03:59:29.682Z,0.00
2024-04-12T04:00:29.617Z,0.00
2024-04-12T04:01:29.526Z,0.00
2024-04-12T04:02:29.450Z,0.00
2024-04-12T04:03:29.386Z,0.00
2024-04-12T04:04:29.295Z,0.00
2024-04-12T04:05:29.172Z,0.00
2024-04-12T04:06:29.097Z,0.00
2024-04-12T04:07:29.005Z,0.00
2024-04-12T04:08:28.923Z,0.00
2024-04-12T04:09:28.849Z,0.00
2024-04-12T04:10:28.786Z,0.00
2024-04-12T04:11:28.666Z,0.00
2024-04-12T04:12:28.588Z,0.00
2024-04-12T04:13:28.524Z,0.00
2024-04-12T04:14:28.420Z,0.00
2024-04-12T04:15:28.354Z,0.00
2024-04-12T04:16:28.246Z,0.00
2024-04-12T04:17:28.245Z,0.00
2024-04-12T04:18:28.264Z,0.00
2024-04-12T04:19:28.000Z,0.00
2024-04-12T04:20:27.909Z,0.00
2024-04-12T04:21:27.824Z,0.00
2024-04-12T04:22:27.755Z,0.00
2024-04-12T04:23:27.667Z,0.00
2024-04-12T04:24:27.581Z,0.00
2024-04-12T04:25:27.486Z,0.00
2024-04-12T04:26:27.401Z,0.00
2024-04-12T04:27:27.319Z,0.00
2024-04-12T04:28:27.238Z,0.00
2024-04-12T04:29:27.146Z,0.00
2024-04-12T04:30:27.175Z,0.00
2024-04-12T04:31:27.000Z,0.00
2024-04-12T04:32:26.936Z,0.00
2024-04-12T04:33:26.910Z,0.00
2024-04-12T04:34:26.741Z,0.00
2024-04-12T04:35:26.647Z,0.00
2024-04-12T04:36:26.563Z,0.00
2024-04-12T04:37:33.042Z,0.00
2024-04-12T04:38:26.389Z,0.00
2024-04-12T04:39:26.303Z,0.00
2024-04-12T04:40:26.224Z,0.00
2024-04-12T04:41:27.669Z,0.00
2024-04-12T04:42:26.058Z,0.00
2024-04-12T04:43:25.968Z,0.00
2024-04-12T04:44:25.883Z,0.00
2024-04-12T04:45:25.809Z,0.00
2024-04-12T04:46:25.731Z,0.00
2024-04-12T04:47:25.664Z,0.00
2024-04-12T04:48:25.654Z,0.00
2024-04-12T04:49:25.549Z,0.00
2024-04-12T04:50:25.379Z,0.00
2024-04-12T04:51:25.292Z,0.00
2024-04-12T04:52:25.203Z,0.00
2024-04-12T04:53:25.122Z,5.63
2024-04-12T04:54:25.045Z,5.63
2024-04-12T04:55:24.965Z,5.63
2024-04-12T04:56:24.878Z,5.63
2024-04-12T04:57:24.783Z,5.63
2024-04-12T04:58:24.699Z,5.63
2024-04-12T04:59:24.615Z,5.63
2024-04-12T05:00:25.053Z,5.63
2024-04-12T05:01:24.446Z,5.63
2024-04-12T05:02:24.368Z,5.63
2024-04-12T05:03:24.432Z,5.63
2024-04-12T05:04:24.236Z,5.63
2024-04-12T05:05:26.035Z,5.63
2024-04-12T05:06:24.028Z,5.63
2024-04-12T05:07:23.951Z,5.63
2024-04-12T05:08:23.853Z,5.63
2024-04-12T05:09:23.772Z,5.63
2024-04-12T05:10:23.708Z,11.25
2024-04-12T05:11:23.600Z,11.25
2024-04-12T05:12:23.580Z,11.25
2024-04-12T05:13:23.432Z,11.25
2024-04-12T05:14:23.345Z,11.25
2024-04-12T05:15:23.278Z,11.25
2024-04-12T05:16:23.247Z,11.25
2024-04-12T05:17:23.257Z,11.25
2024-04-12T05:18:23.123Z,11.25
2024-04-12T05:19:22.936Z,11.25
2024-04-12T05:20:22.840Z,11.25
2024-04-12T05:21:22.785Z,11.25
2024-04-12T05:22:22.670Z,11.25
2024-04-12T05:23:22.729Z,11.25
2024-04-12T05:24:22.512Z,11.25
2024-04-12T05:25:22.420Z,11.25
2024-04-12T05:26:22.463Z,11.25
2024-04-12T05:27:22.274Z,11.25
2024-04-12T05:28:22.182Z,11.25
2024-04-12T05:29:22.085Z,11.25
2024-04-12T05:30:21.996Z,11.25
2024-04-12T05:31:21.944Z,11.25
2024-04-12T05:32:21.871Z,11.25
2024-04-12T05:33:21.869Z,11.25
2024-04-12T05:34:21.662Z,16.88
2024-04-12T05:35:21.577Z,16.88
2024-04-12T05:36:21.512Z,16.88
2024-04-12T05:37:21.404Z,16.88
2024-04-12T05:38:21.324Z,16.88
2024-04-12T05:39:21.257Z,16.88
2024-04-12T05:40:21.152Z,16.88
2024-04-12T05:41:21.075Z,16.88
2024-04-12T05:42:20.978Z,16.88
2024-04-12T05:43:20.896Z,16.88
2024-04-12T05:44:20.812Z,16.88
2024-04-12T05:45:20.762Z,16.88
2024-04-12T05:46:20.641Z,16.88
2024-04-12T05:47:20.643Z,22.50
2024-04-12T05:48:20.522Z,22.50
2024-04-12T05:49:20.391Z,22.50
2024-04-12T05:50:20.307Z,22.50
2024-04-12T05:51:22.148Z,22.50
2024-04-12T05:52:20.137Z,22.50
2024-04-12T05:53:20.053Z,22.50
2024-04-12T05:54:19.967Z,22.50
2024-04-12T05:55:19.948Z,22.50
2024-04-12T05:56:19.878Z,22.50
2024-04-12T05:57:19.752Z,22.50
2024-04-12T05:58:19.631Z,22.50
2024-04-12T05:59:19.554Z,22.50
2024-04-12T06:00:19.509Z,22.50
2024-04-12T06:01:19.404Z,22.50
2024-04-12T06:02:19.327Z,22.50
2024-04-12T06:03:19.396Z,22.50
2024-04-12T06:04:19.174Z,22.50
2024-04-12T06:05:19.041Z,22.50
2024-04-12T06:06:19.000Z,22.50
2024-04-12T06:07:18.884Z,22.50
2024-04-12T06:08:18.796Z,22.50
2024-04-12T06:09:20.125Z,22.50
2024-04-12T06:10:18.622Z,22.50
2024-04-12T06:11:18.900Z,22.50
2024-04-12T06:12:18.626Z,22.50
2024-04-12T06:13:18.368Z,22.50
2024-04-12T06:14:18.288Z,22.50
2024-04-12T06:15:18.256Z,22.50
2024-04-12T06:16:18.233Z,22.50
2024-04-12T06:17:18.035Z,22.50
2024-04-12T06:18:18.107Z,22.50
2024-04-12T06:19:17.869Z,22.50
2024-04-12T06:20:17.782Z,22.50
2024-04-12T06:21:17.793Z,22.50
2024-04-12T06:22:17.612Z,22.50
2024-04-12T06:23:17.532Z,22.50
2024-04-12T06:24:17.663Z,22.50
2024-04-12T06:25:17.389Z,22.50
2024-04-12T06:26:17.298Z,22.50
2024-04-12T06:27:17.227Z,22.50
2024-04-12T06:28:17.119Z,22.50
2024-04-12T06:29:22.557Z,28.13
2024-04-12T06:30:17.025Z,28.13
2024-04-12T06:31:16.860Z,28.13
2024-04-12T06:32:16.794Z,28.13
2024-04-12T06:33:16.809Z,28.13
2024-04-12T06:34:16.632Z,28.13
2024-04-12T06:35:16.528Z,33.75
2024-04-12T06:36:16.480Z,33.75
2024-04-12T06:37:16.363Z,33.75
2024-04-12T06:38:16.275Z,39.38
2024-04-12T06:39:16.235Z,39.38
2024-04-12T06:40:16.110Z,33.75
2024-04-12T06:41:16.031Z,33.75
2024-04-12T06:42:16.048Z,39.38
2024-04-12T06:43:16.648Z,39.38
2024-04-12T06:44:15.771Z,45.00
2024-04-12T06:45:15.750Z,45.00
2024-04-12T06:46:15.834Z,45.00
2024-04-12T06:47:15.558Z,45.00
2024-04-12T06:48:15.483Z,45.00
2024-04-12T06:49:15.354Z,45.00
2024-04-12T06:50:15.275Z,45.00
2024-04-12T06:51:15.438Z,50.63
2024-04-12T06:52:15.104Z,50.63
2024-04-12T06:53:15.027Z,50.63
2024-04-12T06:54:15.054Z,50.63
2024-04-12T06:55:14.860Z,50.63
2024-04-12T06:56:14.782Z,56.25
2024-04-12T06:57:14.695Z,56.25
2024-04-12T06:58:14.606Z,56.25
2024-04-12T06:59:14.523Z,61.88
2024-04-12T07:00:14.510Z,61.88
2024-04-12T07:01:14.444Z,61.88
2024-04-12T07:02:14.285Z,61.88
2024-04-12T07:03:14.317Z,56.25
2024-04-12T07:04:14.124Z,50.63
2024-04-12T07:05:14.050Z,56.25
2024-04-12T07:06:13.977Z,56.25
2024-04-12T07:07:13.854Z,56.25
2024-04-12T07:08:13.779Z,61.88
2024-04-12T07:09:13.726Z,56.25
2024-04-12T07:10:13.616Z,61.88
2024-04-12T07:11:13.555Z,56.25
2024-04-12T07:12:13.481Z,61.88
2024-04-12T07:13:13.357Z,56.25
2024-04-12T07:14:13.287Z,56.25
2024-04-12T07:15:13.255Z,61.88
2024-04-12T07:16:13.114Z,73.13
2024-04-12T07:17:13.070Z,73.13
2024-04-12T07:18:12.999Z,84.38
2024-04-12T07:19:12.861Z,84.38
2024-04-12T07:20:12.779Z,90.00
2024-04-12T07:21:12.779Z,90.00
2024-04-12T07:22:12.613Z,101.25
2024-04-12T07:23:12.542Z,106.88
2024-04-12T07:24:12.503Z,112.50
2024-04-12T07:25:12.369Z,123.75
2024-04-12T07:26:12.284Z,123.75
2024-04-12T07:27:12.250Z,129.38
2024-04-12T07:28:12.117Z,129.38
2024-04-12T07:29:12.039Z,106.88
2024-04-12T07:30:12.049Z,101.25
2024-04-12T07:31:11.872Z,112.50
2024-04-12T07:32:14.820Z,106.88
2024-04-12T07:33:11.771Z,106.88
2024-04-12T07:34:11.683Z,106.88
2024-04-12T07:35:11.545Z,84.38
2024-04-12T07:36:11.536Z,73.13
2024-04-12T07:37:11.380Z,78.75
2024-04-12T07:38:11.297Z,90.00
2024-04-12T07:39:11.400Z,118.13
2024-04-12T07:40:11.134Z,129.38
2024-04-12T07:41:11.054Z,135.00
2024-04-12T07:42:11.057Z,135.00
2024-04-12T07:43:11.979Z,135.00
2024-04-12T07:44:10.809Z,135.00
2024-04-12T07:45:10.793Z,140.63
2024-04-12T07:46:10.652Z,123.75
2024-04-12T07:47:10.595Z,118.13
2024-04-12T07:48:10.557Z,140.63
2024-04-12T07:49:10.414Z,123.75
2024-04-12T07:50:10.317Z,157.50
2024-04-12T07:51:10.252Z,151.88
2024-04-12T07:52:10.165Z,151.88
2024-04-12T07:53:10.080Z,151.88
2024-04-12T07:54:10.044Z,163.13
2024-04-12T07:55:09.917Z,174.38
2024-04-12T07:56:10.682Z,174.38
2024-04-12T07:57:09.931Z,168.75
2024-04-12T07:58:09.673Z,185.63
2024-04-12T07:59:09.594Z,196.88
2024-04-12T08:00:09.586Z,185.63
2024-04-12T08:01:09.454Z,196.88
2024-04-12T08:02:11.253Z,180.00
2024-04-12T08:03:09.341Z,185.63
2024-04-12T08:04:09.235Z,191.25
2024-04-12T08:05:09.116Z,185.63
2024-04-12T08:06:09.120Z,180.00
2024-04-12T08:07:08.947Z,174.38
2024-04-12T08:08:08.870Z,174.38
2024-04-12T08:09:08.904Z,174.38
2024-04-12T08:10:08.705Z,180.00
2024-04-12T08:11:08.650Z,185.63
2024-04-12T08:12:08.616Z,191.25
2024-04-12T08:13:08.477Z,202.50
2024-04-12T08:14:08.391Z,208.13
2024-04-12T08:15:08.836Z,208.13
2024-04-12T08:16:08.224Z,213.75
2024-04-12T08:17:08.189Z,208.13
2024-04-12T08:18:08.182Z,208.13
2024-04-12T08:19:08.068Z,208.13
2024-04-12T08:20:07.907Z,208.13
2024-04-12T08:21:10.273Z,213.75
2024-04-12T08:22:07.757Z,208.13
2024-04-12T08:23:07.674Z,196.88
2024-04-12T08:24:07.626Z,219.38
2024-04-12T08:25:07.519Z,219.38
2024-04-12T08:26:07.433Z,219.38
2024-04-12T08:27:07.436Z,213.75
2024-04-12T08:28:07.276Z,213.75
2024-04-12T08:29:07.198Z,208.13
2024-04-12T08:30:07.216Z,219.38
2024-04-12T08:31:07.339Z,208.13
2024-04-12T08:32:06.982Z,208.13
2024-04-12T08:33:07.025Z,219.38
2024-04-12T08:34:06.911Z,225.00
2024-04-12T08:35:06.740Z,225.00
2024-04-12T08:36:06.713Z,219.38
2024-04-12T08:37:06.566Z,219.38
2024-04-12T08:38:06.497Z,219.38
2024-04-12T08:39:06.501Z,219.38
2024-04-12T08:40:06.349Z,219.38
2024-04-12T08:41:06.251Z,213.75
2024-04-12T08:42:06.204Z,213.75
2024-04-12T08:43:06.104Z,213.75
2024-04-12T08:44:06.017Z,219.38
2024-04-12T08:45:06.024Z,219.38
2024-04-12T08:46:05.862Z,219.38
2024-04-12T08:47:05.854Z,213.75
2024-04-12T08:48:05.942Z,213.75
2024-04-12T08:49:07.444Z,213.75
2024-04-12T08:50:05.551Z,213.75
2024-04-12T08:51:05.621Z,219.38
2024-04-12T08:52:05.395Z,219.38
2024-04-12T08:53:05.319Z,219.38
2024-04-12T08:54:05.463Z,219.38
2024-04-12T08:56:05.086Z,219.38
2024-04-12T08:57:05.035Z,219.38
2024-04-12T08:58:04.926Z,213.75
2024-04-12T08:59:04.847Z,213.75
2024-04-12T09:00:04.844Z,213.75
2024-04-12T09:01:04.718Z,208.13
2024-04-12T09:02:04.619Z,213.75
2024-04-12T09:03:05.009Z,208.13
2024-04-12T09:04:04.718Z,208.13
2024-04-12T09:05:04.416Z,208.13
2024-04-12T09:06:04.387Z,208.13
2024-04-12T09:07:04.228Z,208.13
2024-04-12T09:08:06.775Z,208.13
2024-04-12T09:09:04.205Z,202.50
2024-04-12T09:10:04.014Z,202.50
2024-04-12T09:11:05.606Z,202.50
2024-04-12T09:12:03.914Z,196.88
2024-04-12T09:13:03.809Z,196.88
2024-04-12T09:14:03.697Z,202.50
2024-04-12T09:15:03.673Z,202.50
2024-04-12T09:16:03.568Z,208.13
2024-04-12T09:17:03.571Z,202.50
2024-04-12T09:18:03.574Z,202.50
2024-04-12T09:19:03.356Z,202.50
2024-04-12T09:20:03.235Z,202.50
2024-04-12T09:21:03.805Z,202.50
2024-04-12T09:22:03.082Z,202.50
2024-04-12T09:23:03.019Z,202.50
2024-04-12T09:24:02.938Z,202.50
2024-04-12T09:25:02.871Z,202.50
2024-04-12T09:26:05.577Z,202.50
2024-04-12T09:27:02.738Z,202.50
2024-04-12T09:28:02.640Z,208.13
2024-04-12T09:29:02.539Z,208.13
2024-04-12T09:30:02.515Z,208.13
2024-04-12T09:31:02.388Z,208.13
2024-04-12T09:32:02.316Z,208.13
2024-04-12T09:33:02.367Z,208.13
2024-04-12T09:34:02.316Z,208.13
2024-04-12T09:35:02.112Z,208.13
2024-04-12T09:36:02.033Z,208.13
2024-04-12T09:37:01.922Z,208.13
2024-04-12T09:38:01.851Z,208.13
2024-04-12T09:39:01.848Z,208.13
2024-04-12T09:40:01.764Z,208.13
2024-04-12T09:41:01.620Z,208.13
2024-04-12T09:42:01.630Z,208.13
2024-04-12T09:43:01.522Z,208.13
2024-04-12T09:44:01.413Z,208.13
2024-04-12T09:45:01.482Z,208.13
2024-04-12T09:46:01.234Z,208.13
2024-04-12T09:47:01.196Z,208.13
2024-04-12T09:48:01.248Z,208.13
2024-04-12T09:49:01.175Z,208.13
2024-04-12T09:50:00.944Z,208.13
2024-04-12T09:51:00.918Z,208.13
2024-04-12T09:52:00.781Z,208.13
2024-04-12T09:53:00.723Z,213.75
2024-04-12T09:54:00.685Z,213.75
2024-04-12T09:55:00.552Z,213.75
2024-04-12T09:56:00.476Z,213.75
2024-04-12T09:57:00.473Z,208.13
2024-04-12T09:58:00.325Z,213.75
2024-04-12T09:59:00.249Z,213.75
2024-04-12T10:00:00.264Z,213.75
2024-04-12T10:01:00.167Z,213.75
2024-04-12T10:02:00.038Z,208.13
2024-04-12T10:03:00.052Z,213.75
2024-04-12T10:03:59.948Z,213.75
2024-04-12T10:04:59.796Z,213.75
2024-04-12T10:05:59.759Z,213.75
2024-04-12T10:06:59.654Z,213.75
2024-04-12T10:07:59.580Z,213.75
2024-04-12T10:08:59.554Z,213.75
2024-04-12T10:09:59.421Z,213.75
2024-04-12T10:10:59.384Z,213.75
2024-04-12T10:11:59.384Z,213.75
2024-04-12T10:12:59.192Z,213.75
2024-04-12T10:13:59.125Z,213.75
2024-04-12T10:14:59.063Z,213.75
2024-04-12T10:15:58.975Z,213.75
2024-04-12T10:16:58.907Z,213.75
2024-04-12T10:17:58.935Z,213.75
2024-04-12T10:18:58.815Z,213.75
2024-04-12T10:19:58.685Z,213.75
2024-04-12T10:20:58.640Z,213.75
2024-04-12T10:21:58.520Z,208.13
2024-04-12T10:22:58.444Z,208.13
2024-04-12T10:23:58.382Z,208.13
2024-04-12T10:24:58.294Z,208.13
2024-04-12T10:25:58.219Z,213.75
2024-04-12T10:26:58.178Z,213.75
2024-04-12T10:27:58.066Z,213.75
2024-04-12T10:28:58.022Z,213.75
2024-04-12T10:29:57.956Z,213.75
2024-04-12T10:30:57.842Z,213.75
2024-04-12T10:31:57.787Z,213.75
2024-04-12T10:32:57.851Z,213.75
2024-04-12T10:33:57.705Z,219.38
2024-04-12T10:34:57.538Z,213.75
2024-04-12T10:35:57.539Z,219.38
2024-04-12T10:36:57.402Z,219.38
2024-04-12T10:37:57.321Z,208.13
2024-04-12T10:38:57.241Z,219.38
2024-04-12T10:39:57.186Z,213.75
2024-04-12T10:40:57.091Z,208.13
2024-04-12T10:41:57.054Z,219.38
2024-04-12T10:42:56.940Z,213.75
2024-04-12T10:43:56.876Z,213.75
2024-04-12T10:44:56.892Z,208.13
2024-04-12T10:45:56.731Z,213.75
2024-04-12T10:46:56.644Z,213.75
2024-04-12T10:47:56.672Z,202.50
2024-04-12T10:48:56.492Z,208.13
2024-04-12T10:49:56.419Z,202.50
2024-04-12T10:50:56.377Z,185.63
2024-04-12T10:51:56.271Z,202.50
2024-04-12T10:52:56.193Z,208.13
2024-04-12T10:53:56.188Z,208.13
2024-04-12T10:54:56.043Z,208.13
2024-04-12T10:55:55.979Z,202.50
2024-04-12T10:56:59.290Z,196.88
2024-04-12T10:57:55.831Z,196.88
2024-04-12T10:58:55.749Z,185.63
2024-04-12T10:59:55.740Z,180.00
2024-04-12T11:00:55.638Z,185.63
2024-04-12T11:01:55.535Z,174.38
2024-04-12T11:03:02.729Z,191.25
2024-04-12T11:03:55.445Z,196.88
2024-04-12T11:04:56.608Z,202.50
2024-04-12T11:05:55.319Z,202.50
2024-04-12T11:06:55.169Z,174.38
2024-04-12T11:07:55.080Z,174.38
2024-04-12T11:08:55.024Z,202.50
2024-04-12T11:09:54.931Z,196.88
2024-04-12T11:10:54.926Z,196.88
2024-04-12T11:11:54.836Z,213.75
2024-04-12T11:12:54.710Z,213.75
2024-04-12T11:13:54.644Z,213.75
2024-04-12T11:14:54.576Z,208.13
2024-04-12T11:15:54.492Z,208.13
2024-04-12T11:16:54.412Z,208.13
2024-04-12T11:17:54.494Z,213.75
2024-04-12T11:18:54.336Z,191.25
2024-04-12T11:19:54.202Z,168.75
2024-04-12T11:20:54.162Z,174.38
2024-04-12T11:21:54.044Z,163.13
2024-04-12T11:22:53.969Z,174.38
2024-04-12T11:23:53.917Z,168.75
2024-04-12T11:24:53.821Z,202.50
2024-04-12T11:25:53.752Z,202.50
2024-04-12T11:26:53.713Z,196.88
2024-04-12T11:27:53.602Z,196.88
2024-04-12T11:28:53.524Z,202.50
2024-04-12T11:29:53.487Z,185.63
2024-04-12T11:30:53.403Z,180.00
2024-04-12T11:31:53.341Z,196.88
2024-04-12T11:32:53.279Z,202.50
2024-04-12T11:33:57.326Z,202.50
2024-04-12T11:34:53.422Z,202.50
2024-04-12T11:35:53.042Z,185.63
2024-04-12T11:36:52.936Z,191.25
2024-04-12T11:37:52.862Z,191.25
2024-04-12T11:38:52.850Z,191.25
2024-04-12T11:39:52.722Z,191.25
2024-04-12T11:40:52.636Z,196.88
2024-04-12T11:41:52.607Z,196.88
2024-04-12T11:42:52.499Z,191.25
2024-04-12T11:43:52.433Z,196.88
2024-04-12T11:44:52.362Z,202.50
2024-04-12T11:45:52.269Z,202.50
2024-04-12T11:46:52.210Z,191.25
2024-04-12T11:47:52.518Z,185.63
2024-04-12T11:48:52.105Z,180.00
2024-04-12T11:49:51.992Z,174.38
2024-04-12T11:50:51.919Z,157.50
2024-04-12T11:51:51.830Z,151.88
2024-04-12T11:52:51.756Z,151.88
2024-04-12T11:53:51.703Z,151.88
2024-04-12T11:54:51.609Z,140.63
2024-04-12T11:55:51.539Z,140.63
2024-04-12T11:56:51.491Z,135.00
2024-04-12T11:57:51.406Z,140.63
2024-04-12T11:58:51.310Z,140.63
2024-04-12T11:59:51.286Z,140.63
2024-04-12T12:00:51.180Z,146.25
2024-04-12T12:01:51.111Z,146.25
2024-04-12T12:02:51.058Z,146.25
2024-04-12T12:03:50.979Z,135.00
2024-04-12T12:04:50.867Z,180.00
2024-04-12T12:05:50.847Z,185.63
2024-04-12T12:06:50.730Z,180.00
2024-04-12T12:07:50.684Z,185.63
2024-04-12T12:08:50.588Z,185.63
2024-04-12T12:09:50.510Z,180.00
2024-04-12T12:10:50.427Z,196.88
2024-04-12T12:11:50.630Z,196.88
2024-04-12T12:12:50.311Z,180.00
2024-04-12T12:13:50.211Z,174.38
2024-04-12T12:14:50.171Z,174.38
2024-04-12T12:15:50.069Z,185.63
2024-04-12T12:16:50.025Z,174.38
2024-04-12T12:17:49.961Z,180.00
2024-04-12T12:18:49.942Z,196.88
2024-04-12T12:19:49.771Z,202.50
2024-04-12T12:20:49.705Z,185.63
2024-04-12T12:21:49.631Z,185.63
2024-04-12T12:22:49.551Z,185.63
2024-04-12T12:23:49.498Z,185.63
2024-04-12T12:24:49.606Z,185.63
2024-04-12T12:25:49.329Z,180.00
2024-04-12T12:26:49.285Z,180.00
2024-04-12T12:27:49.186Z,180.00
2024-04-12T12:28:49.107Z,185.63
2024-04-12T12:29:49.040Z,191.25
2024-04-12T12:30:48.956Z,180.00
2024-04-12T12:31:48.891Z,196.88
2024-04-12T12:32:48.897Z,191.25
2024-04-12T12:33:48.875Z,180.00
2024-04-12T12:34:48.732Z,196.88
2024-04-12T12:35:48.660Z,191.25
2024-04-12T12:36:48.520Z,174.38
2024-04-12T12:37:48.440Z,174.38
2024-04-12T12:38:48.392Z,168.75
2024-04-12T12:39:48.384Z,185.63
2024-04-12T12:40:48.222Z,191.25
2024-04-12T12:41:48.198Z,180.00
2024-04-12T12:42:48.100Z,180.00
2024-04-12T12:43:48.008Z,174.38
2024-04-12T12:44:47.945Z,180.00
2024-04-12T12:45:47.857Z,191.25
2024-04-12T12:46:47.785Z,191.25
2024-04-12T12:47:47.779Z,180.00
2024-04-12T12:48:47.715Z,191.25
2024-04-12T12:49:47.649Z,191.25
2024-04-12T12:50:47.550Z,196.88
2024-04-12T12:51:47.422Z,191.25
2024-04-12T12:52:47.966Z,185.63
2024-04-12T12:53:47.313Z,174.38
2024-04-12T12:54:47.197Z,174.38
2024-04-12T12:55:47.132Z,174.38
2024-04-12T12:56:47.068Z,185.63
2024-04-12T12:57:47.002Z,185.63
2024-04-12T12:58:46.905Z,191.25
2024-04-12T12:59:46.984Z,196.88
2024-04-12T13:00:46.944Z,202.50
2024-04-12T13:01:46.687Z,180.00
2024-04-12T13:02:46.642Z,151.88
2024-04-12T13:03:46.582Z,140.63
2024-04-12T13:04:46.570Z,112.50
2024-04-12T13:05:46.423Z,168.75
2024-04-12T13:06:46.330Z,168.75
2024-04-12T13:07:46.254Z,180.00
2024-04-12T13:08:46.198Z,185.63
2024-04-12T13:09:46.118Z,185.63
2024-04-12T13:10:46.049Z,168.75
2024-04-12T13:11:46.004Z,180.00
2024-04-12T13:12:45.890Z,140.63
2024-04-12T13:13:45.819Z,146.25
2024-04-12T13:14:45.814Z,151.88
2024-04-12T13:15:45.678Z,174.38
2024-04-12T13:16:45.603Z,180.00
2024-04-12T13:17:45.619Z,180.00
2024-04-12T13:18:45.688Z,185.63
2024-04-12T13:19:45.383Z,174.38
2024-04-12T13:20:45.316Z,174.38
2024-04-12T13:21:45.236Z,174.38
2024-04-12T13:22:45.165Z,174.38
2024-04-12T13:23:45.103Z,174.38
2024-04-12T13:24:45.059Z,163.13
2024-04-12T13:25:44.951Z,168.75
2024-04-12T13:26:44.955Z,180.00
2024-04-12T13:27:44.800Z,174.38
2024-04-12T13:28:44.730Z,174.38
2024-04-12T13:29:44.676Z,168.75
2024-04-12T13:30:44.585Z,174.38
2024-04-12T13:31:44.523Z,168.75
2024-04-12T13:32:44.899Z,168.75
2024-04-12T13:33:44.408Z,174.38
2024-04-12T13:34:44.295Z,174.38
2024-04-12T13:35:44.233Z,168.75
2024-04-12T13:36:44.153Z,174.38
2024-04-12T13:37:44.075Z,174.38
2024-04-12T13:38:44.024Z,168.75
2024-04-12T13:39:43.940Z,163.13
2024-04-12T13:40:43.885Z,163.13
2024-04-12T13:41:43.809Z,151.88
2024-04-12T13:42:43.715Z,157.50
2024-04-12T13:43:43.644Z,146.25
2024-04-12T13:44:43.576Z,151.88
2024-04-12T13:45:43.500Z,157.50
2024-04-12T13:46:45.203Z,151.88
2024-04-12T13:47:43.539Z,146.25
2024-04-12T13:48:43.331Z,157.50
2024-04-12T13:49:43.215Z,157.50
2024-04-12T13:50:43.212Z,135.00
2024-04-12T13:51:43.070Z,140.63
2024-04-12T13:52:42.995Z,151.88
2024-04-12T13:53:42.930Z,163.13
2024-04-12T13:54:42.859Z,157.50
2024-04-12T13:55:42.772Z,151.88
2024-04-12T13:56:42.713Z,163.13
2024-04-12T13:57:42.630Z,174.38
2024-04-12T13:58:42.555Z,163.13
2024-04-12T13:59:42.539Z,146.25
2024-04-12T14:00:42.443Z,140.63
2024-04-12T14:01:42.339Z,146.25
2024-04-12T14:02:42.375Z,146.25
2024-04-12T14:03:42.269Z,135.00
2024-04-12T14:04:42.119Z,140.63
2024-04-12T14:05:42.083Z,135.00
2024-04-12T14:06:41.973Z,140.63
2024-04-12T14:07:41.906Z,140.63
2024-04-12T14:08:41.850Z,135.00
2024-04-12T14:09:41.760Z,146.25
2024-04-12T14:10:41.727Z,146.25
2024-04-12T14:11:41.666Z,140.63
2024-04-12T14:12:41.543Z,135.00
2024-04-12T14:13:41.471Z,151.88
2024-04-12T14:14:41.443Z,146.25
2024-04-12T14:15:41.389Z,151.88
2024-04-12T14:16:41.275Z,168.75
2024-04-12T14:17:41.238Z,168.75
2024-04-12T14:18:41.185Z,146.25
2024-04-12T14:19:41.032Z,135.00
2024-04-12T14:20:41.000Z,123.75
2024-04-12T14:21:40.888Z,129.38
2024-04-12T14:22:40.812Z,135.00
2024-04-12T14:23:40.773Z,140.63
2024-04-12T14:24:40.674Z,151.88
2024-04-12T14:25:40.594Z,151.88
2024-04-12T14:26:40.533Z,123.75
2024-04-12T14:27:40.449Z,118.13
2024-04-12T14:28:40.378Z,123.75
2024-04-12T14:29:40.309Z,118.13
2024-04-12T14:30:40.238Z,112.50
2024-04-12T14:31:40.164Z,112.50
2024-04-12T14:32:40.119Z,118.13
2024-04-12T14:33:40.587Z,118.13
2024-04-12T14:34:39.944Z,118.13
2024-04-12T14:35:39.898Z,140.63
2024-04-12T14:36:39.796Z,123.75
2024-04-12T14:37:39.728Z,146.25
2024-04-12T14:38:41.524Z,151.88
2024-04-12T14:39:39.584Z,157.50
2024-04-12T14:40:39.508Z,151.88
2024-04-12T14:41:39.438Z,140.63
2024-04-12T14:42:39.368Z,112.50
2024-04-12T14:43:39.291Z,123.75
2024-04-12T14:44:40.604Z,101.25
2024-04-12T14:45:39.143Z,112.50
2024-04-12T14:46:39.129Z,129.38
2024-04-12T14:47:39.005Z,140.63
2024-04-12T14:48:39.064Z,146.25
2024-04-12T14:49:38.861Z,151.88
2024-04-12T14:50:40.331Z,146.25
2024-04-12T14:51:38.708Z,140.63
2024-04-12T14:52:38.637Z,135.00
2024-04-12T14:53:38.576Z,135.00
2024-04-12T14:54:38.508Z,123.75
2024-04-12T14:55:38.435Z,118.13
2024-04-12T14:56:42.773Z,118.13
2024-04-12T14:57:38.271Z,129.38